sensor_id;sensor_type;location;lat;lon;timestamp;temperature;humidity
6822;DHT22;3449;48.728;8.968;2024-01-15T00:00:15;-2.80;99.90
6822;DHT22;3449;48.728;8.968;2024-01-15T00:02:43;-2.80;99.90
6822;DHT22;3449;48.728;8.968;2024-01-15T00:05:10;-2.80;99.90
6822;DHT22;3449;48.728;8.968;2024-01-15T00:07:37;-2.80;99.90
6822;DHT22;3449;48.728;8.968;2024-01-15T00:10:04;-2.80;99.90
6822;DHT22;3449;48.728;8.968;2024-01-15T00:12:31;-2.80;99.90
6822;DHT22;3449;48.728;8.968;2024-01-15T00:14:58;-2.80;99.90
6822;DHT22;3449;48.728;8.968;2024-01-15T00:17:25;-2.80;99.90
6822;DHT22;3449;48.728;8.968;2024-01-15T00:19:53;-2.80;99.90
6822;DHT22;3449;48.728;8.968;2024-01-15T00:22:20;-2.80;99.90
6822;DHT22;3449;48.728;8.968;2024-01-15T00:24:47;-2.80;99.90
6822;DHT22;3449;48.728;8.968;2024-01-15T00:27:13;-2.80;99.90
6822;DHT22;3449;48.728;8.968;2024-01-15T00:29:40;-2.80;99.90
6822;DHT22;3449;48.728;8.968;2024-01-15T00:32:07;-2.90;99.90
6822;DHT22;3449;48.728;8.968;2024-01-15T00:34:34;-2.90;99.90
6822;DHT22;3449;48.728;8.968;2024-01-15T00:37:02;-2.90;99.90
6822;DHT22;3449;48.728;8.968;2024-01-15T00:39:32;-2.90;99.90
6822;DHT22;3449;48.728;8.968;2024-01-15T00:41:59;-2.90;99.90
6822;DHT22;3449;48.728;8.968;2024-01-15T00:44:26;-3.00;99.90
6822;DHT22;3449;48.728;8.968;2024-01-15T00:46:52;-2.90;99.90
6822;DHT22;3449;48.728;8.968;2024-01-15T00:49:19;-2.90;99.90
6822;DHT22;3449;48.728;8.968;2024-01-15T00:51:47;-2.90;99.90
6822;DHT22;3449;48.728;8.968;2024-01-15T00:54:15;-2.90;99.90
6822;DHT22;3449;48.728;8.968;2024-01-15T00:56:42;-2.90;99.90
6822;DHT22;3449;48.728;8.968;2024-01-15T00:59:09;-2.90;99.90
6822;DHT22;3449;48.728;8.968;2024-01-15T01:01:40;-2.90;99.90
6822;DHT22;3449;48.728;8.968;2024-01-15T01:04:08;-2.90;99.90
6822;DHT22;3449;48.728;8.968;2024-01-15T01:06:35;-2.90;99.90
6822;DHT22;3449;48.728;8.968;2024-01-15T01:09:02;-2.80;99.90
6822;DHT22;3449;48.728;8.968;2024-01-15T01:11:30;-2.70;99.90
6822;DHT22;3449;48.728;8.968;2024-01-15T01:13:57;-2.70;99.90
6822;DHT22;3449;48.728;8.968;2024-01-15T01:16:24;-2.70;99.90
6822;DHT22;3449;48.728;8.968;2024-01-15T01:18:50;-2.70;99.90
6822;DHT22;3449;48.728;8.968;2024-01-15T01:21:17;-2.60;99.90
6822;DHT22;3449;48.728;8.968;2024-01-15T01:23:44;-2.60;99.90
6822;DHT22;3449;48.728;8.968;2024-01-15T01:26:14;-2.50;99.90
6822;DHT22;3449;48.728;8.968;2024-01-15T01:28:43;-2.60;99.90
6822;DHT22;3449;48.728;8.968;2024-01-15T01:31:09;-2.50;99.90
6822;DHT22;3449;48.728;8.968;2024-01-15T01:33:38;-2.50;99.90
6822;DHT22;3449;48.728;8.968;2024-01-15T01:36:07;-2.50;99.90
6822;DHT22;3449;48.728;8.968;2024-01-15T01:38:34;-2.50;99.90
6822;DHT22;3449;48.728;8.968;2024-01-15T01:41:01;-2.50;99.90
6822;DHT22;3449;48.728;8.968;2024-01-15T01:43:28;-2.50;99.90
6822;DHT22;3449;48.728;8.968;2024-01-15T01:45:57;-2.50;99.90
6822;DHT22;3449;48.728;8.968;2024-01-15T01:48:24;-2.50;99.90
6822;DHT22;3449;48.728;8.968;2024-01-15T01:50:52;-2.50;99.90
6822;DHT22;3449;48.728;8.968;2024-01-15T01:53:20;-2.50;99.90
6822;DHT22;3449;48.728;8.968;2024-01-15T01:55:48;-2.50;99.90
6822;DHT22;3449;48.728;8.968;2024-01-15T01:58:15;-2.60;99.90
6822;DHT22;3449;48.728;8.968;2024-01-15T02:00:42;-2.60;99.90
6822;DHT22;3449;48.728;8.968;2024-01-15T02:03:11;-2.60;99.90
6822;DHT22;3449;48.728;8.968;2024-01-15T02:05:38;-2.60;99.90
6822;DHT22;3449;48.728;8.968;2024-01-15T02:08:06;-2.60;99.90
6822;DHT22;3449;48.728;8.968;2024-01-15T02:10:33;-2.60;99.90
6822;DHT22;3449;48.728;8.968;2024-01-15T02:12:59;-2.60;99.90
6822;DHT22;3449;48.728;8.968;2024-01-15T02:15:26;-2.60;99.90
6822;DHT22;3449;48.728;8.968;2024-01-15T02:17:57;-2.60;99.90
6822;DHT22;3449;48.728;8.968;2024-01-15T02:20:26;-2.70;99.90
6822;DHT22;3449;48.728;8.968;2024-01-15T02:22:53;-2.70;99.90
6822;DHT22;3449;48.728;8.968;2024-01-15T02:25:21;-2.80;99.90
6822;DHT22;3449;48.728;8.968;2024-01-15T02:27:48;-2.80;99.90
6822;DHT22;3449;48.728;8.968;2024-01-15T02:30:15;-2.80;99.90
6822;DHT22;3449;48.728;8.968;2024-01-15T02:32:43;-2.80;99.90
6822;DHT22;3449;48.728;8.968;2024-01-15T02:35:10;-2.80;99.90
6822;DHT22;3449;48.728;8.968;2024-01-15T02:37:37;-2.80;99.90
6822;DHT22;3449;48.728;8.968;2024-01-15T02:40:04;-2.80;99.90
6822;DHT22;3449;48.728;8.968;2024-01-15T02:42:33;-2.80;99.90
6822;DHT22;3449;48.728;8.968;2024-01-15T02:45:00;-2.80;99.90
6822;DHT22;3449;48.728;8.968;2024-01-15T02:47:26;-2.80;99.90
6822;DHT22;3449;48.728;8.968;2024-01-15T02:49:53;-2.80;99.90
6822;DHT22;3449;48.728;8.968;2024-01-15T02:52:20;-2.70;99.90
6822;DHT22;3449;48.728;8.968;2024-01-15T02:54:47;-2.70;99.90
6822;DHT22;3449;48.728;8.968;2024-01-15T02:57:14;-2.70;99.90
6822;DHT22;3449;48.728;8.968;2024-01-15T02:59:42;-2.60;99.90
6822;DHT22;3449;48.728;8.968;2024-01-15T03:02:09;-2.60;99.90
6822;DHT22;3449;48.728;8.968;2024-01-15T03:04:35;-2.60;99.90
6822;DHT22;3449;48.728;8.968;2024-01-15T03:07:02;-2.60;99.90
6822;DHT22;3449;48.728;8.968;2024-01-15T03:09:29;-2.50;99.90
6822;DHT22;3449;48.728;8.968;2024-01-15T03:11:57;-2.40;99.90
6822;DHT22;3449;48.728;8.968;2024-01-15T03:14:23;-2.40;99.90
6822;DHT22;3449;48.728;8.968;2024-01-15T03:16:53;-2.40;99.90
6822;DHT22;3449;48.728;8.968;2024-01-15T03:19:20;-2.40;99.90
6822;DHT22;3449;48.728;8.968;2024-01-15T03:21:47;-2.40;99.90
6822;DHT22;3449;48.728;8.968;2024-01-15T03:24:14;-2.40;99.90
6822;DHT22;3449;48.728;8.968;2024-01-15T03:26:40;-2.40;99.90
6822;DHT22;3449;48.728;8.968;2024-01-15T03:29:07;-2.30;99.90
6822;DHT22;3449;48.728;8.968;2024-01-15T03:31:34;-2.40;99.90
6822;DHT22;3449;48.728;8.968;2024-01-15T03:34:02;-2.30;99.90
6822;DHT22;3449;48.728;8.968;2024-01-15T03:36:29;-2.30;99.90
6822;DHT22;3449;48.728;8.968;2024-01-15T03:38:56;-2.30;99.90
6822;DHT22;3449;48.728;8.968;2024-01-15T03:41:23;-2.20;99.90
6822;DHT22;3449;48.728;8.968;2024-01-15T03:43:50;-2.20;99.90
6822;DHT22;3449;48.728;8.968;2024-01-15T03:46:17;-2.20;99.90
6822;DHT22;3449;48.728;8.968;2024-01-15T03:48:44;-2.10;99.90
6822;DHT22;3449;48.728;8.968;2024-01-15T03:51:12;-2.10;99.90
6822;DHT22;3449;48.728;8.968;2024-01-15T03:53:38;-2.00;99.90
6822;DHT22;3449;48.728;8.968;2024-01-15T03:56:05;-2.00;99.90
6822;DHT22;3449;48.728;8.968;2024-01-15T03:58:32;-2.00;99.90
6822;DHT22;3449;48.728;8.968;2024-01-15T04:00:59;-2.00;99.90
6822;DHT22;3449;48.728;8.968;2024-01-15T04:03:26;-2.00;99.90
6822;DHT22;3449;48.728;8.968;2024-01-15T04:05:53;-1.90;99.90
6822;DHT22;3449;48.728;8.968;2024-01-15T04:08:21;-1.90;99.90
6822;DHT22;3449;48.728;8.968;2024-01-15T04:10:47;-1.90;99.90
6822;DHT22;3449;48.728;8.968;2024-01-15T04:13:14;-1.90;99.90
6822;DHT22;3449;48.728;8.968;2024-01-15T04:15:41;-1.90;99.90
6822;DHT22;3449;48.728;8.968;2024-01-15T04:18:08;-1.90;99.90
6822;DHT22;3449;48.728;8.968;2024-01-15T04:20:35;-1.80;99.90
6822;DHT22;3449;48.728;8.968;2024-01-15T04:23:02;-1.80;99.90
6822;DHT22;3449;48.728;8.968;2024-01-15T04:25:30;-1.90;99.90
6822;DHT22;3449;48.728;8.968;2024-01-15T04:27:57;-1.90;99.90
6822;DHT22;3449;48.728;8.968;2024-01-15T04:30:24;-1.90;99.90
6822;DHT22;3449;48.728;8.968;2024-01-15T04:32:51;-1.90;99.90
6822;DHT22;3449;48.728;8.968;2024-01-15T04:35:18;-1.80;99.90
6822;DHT22;3449;48.728;8.968;2024-01-15T04:37:45;-1.90;99.90
6822;DHT22;3449;48.728;8.968;2024-01-15T04:40:12;-1.90;99.90
6822;DHT22;3449;48.728;8.968;2024-01-15T04:42:40;-1.80;99.90
6822;DHT22;3449;48.728;8.968;2024-01-15T04:45:08;-1.80;99.90
6822;DHT22;3449;48.728;8.968;2024-01-15T04:47:35;-1.80;99.90
6822;DHT22;3449;48.728;8.968;2024-01-15T04:50:02;-1.80;99.90
6822;DHT22;3449;48.728;8.968;2024-01-15T04:52:29;-1.80;99.90
6822;DHT22;3449;48.728;8.968;2024-01-15T04:54:56;-1.80;99.90
6822;DHT22;3449;48.728;8.968;2024-01-15T04:57:23;-1.80;99.90
6822;DHT22;3449;48.728;8.968;2024-01-15T04:59:51;-1.70;99.90
6822;DHT22;3449;48.728;8.968;2024-01-15T05:02:18;-1.80;99.90
6822;DHT22;3449;48.728;8.968;2024-01-15T05:04:45;-1.80;99.90
6822;DHT22;3449;48.728;8.968;2024-01-15T05:07:12;-1.80;99.90
6822;DHT22;3449;48.728;8.968;2024-01-15T05:09:39;-1.80;99.90
6822;DHT22;3449;48.728;8.968;2024-01-15T05:12:08;-1.80;99.90
6822;DHT22;3449;48.728;8.968;2024-01-15T05:14:35;-1.80;99.90
6822;DHT22;3449;48.728;8.968;2024-01-15T05:17:03;-1.70;99.90
6822;DHT22;3449;48.728;8.968;2024-01-15T05:19:30;-1.70;99.90
6822;DHT22;3449;48.728;8.968;2024-01-15T05:21:57;-1.70;99.90
6822;DHT22;3449;48.728;8.968;2024-01-15T05:24:24;-1.70;99.90
6822;DHT22;3449;48.728;8.968;2024-01-15T05:26:52;-1.70;99.90
6822;DHT22;3449;48.728;8.968;2024-01-15T05:29:18;-1.70;99.90
6822;DHT22;3449;48.728;8.968;2024-01-15T05:31:45;-1.70;99.90
6822;DHT22;3449;48.728;8.968;2024-01-15T05:34:14;-1.70;99.90
6822;DHT22;3449;48.728;8.968;2024-01-15T05:36:40;-1.70;99.90
6822;DHT22;3449;48.728;8.968;2024-01-15T05:39:07;-1.70;99.90
6822;DHT22;3449;48.728;8.968;2024-01-15T05:41:34;-1.70;99.90
6822;DHT22;3449;48.728;8.968;2024-01-15T05:44:01;-1.70;99.90
6822;DHT22;3449;48.728;8.968;2024-01-15T05:46:28;-1.70;99.90
6822;DHT22;3449;48.728;8.968;2024-01-15T05:48:55;-1.70;99.90
6822;DHT22;3449;48.728;8.968;2024-01-15T05:51:23;-1.70;99.90
6822;DHT22;3449;48.728;8.968;2024-01-15T05:53:50;-1.70;99.90
6822;DHT22;3449;48.728;8.968;2024-01-15T05:56:17;-1.70;99.90
6822;DHT22;3449;48.728;8.968;2024-01-15T05:58:44;-1.70;99.90
6822;DHT22;3449;48.728;8.968;2024-01-15T06:01:10;-1.70;99.90
6822;DHT22;3449;48.728;8.968;2024-01-15T06:03:37;-1.70;99.90
6822;DHT22;3449;48.728;8.968;2024-01-15T06:06:04;-1.70;99.90
6822;DHT22;3449;48.728;8.968;2024-01-15T06:08:33;-1.70;99.90
6822;DHT22;3449;48.728;8.968;2024-01-15T06:10:59;-1.70;99.90
6822;DHT22;3449;48.728;8.968;2024-01-15T06:13:26;-1.70;99.90
6822;DHT22;3449;48.728;8.968;2024-01-15T06:15:53;-1.70;99.90
6822;DHT22;3449;48.728;8.968;2024-01-15T06:18:20;-1.70;99.90
6822;DHT22;3449;48.728;8.968;2024-01-15T06:20:47;-1.70;99.90
6822;DHT22;3449;48.728;8.968;2024-01-15T06:23:14;-1.70;99.90
6822;DHT22;3449;48.728;8.968;2024-01-15T06:25:42;-1.70;99.90
6822;DHT22;3449;48.728;8.968;2024-01-15T06:28:09;-1.70;99.90
6822;DHT22;3449;48.728;8.968;2024-01-15T06:30:35;-1.70;99.90
6822;DHT22;3449;48.728;8.968;2024-01-15T06:33:03;-1.70;99.90
6822;DHT22;3449;48.728;8.968;2024-01-15T06:35:30;-1.70;99.90
6822;DHT22;3449;48.728;8.968;2024-01-15T06:37:56;-1.70;99.90
6822;DHT22;3449;48.728;8.968;2024-01-15T06:40:23;-1.70;99.90
6822;DHT22;3449;48.728;8.968;2024-01-15T06:42:51;-1.60;99.90
6822;DHT22;3449;48.728;8.968;2024-01-15T06:45:18;-1.60;99.90
6822;DHT22;3449;48.728;8.968;2024-01-15T06:47:45;-1.60;99.90
6822;DHT22;3449;48.728;8.968;2024-01-15T06:50:12;-1.60;99.90
6822;DHT22;3449;48.728;8.968;2024-01-15T06:52:39;-1.50;99.90
6822;DHT22;3449;48.728;8.968;2024-01-15T06:55:06;-1.60;99.90
6822;DHT22;3449;48.728;8.968;2024-01-15T06:57:33;-1.60;99.90
6822;DHT22;3449;48.728;8.968;2024-01-15T07:00:02;-1.60;99.90
6822;DHT22;3449;48.728;8.968;2024-01-15T07:02:33;-1.60;99.90
6822;DHT22;3449;48.728;8.968;2024-01-15T07:05:00;-1.60;99.90
6822;DHT22;3449;48.728;8.968;2024-01-15T07:07:28;-1.60;99.90
6822;DHT22;3449;48.728;8.968;2024-01-15T07:09:55;-1.60;99.90
6822;DHT22;3449;48.728;8.968;2024-01-15T07:12:22;-1.70;99.90
6822;DHT22;3449;48.728;8.968;2024-01-15T07:14:49;-1.70;99.90
6822;DHT22;3449;48.728;8.968;2024-01-15T07:17:17;-1.60;99.90
6822;DHT22;3449;48.728;8.968;2024-01-15T07:19:44;-1.60;99.90
6822;DHT22;3449;48.728;8.968;2024-01-15T07:22:11;-1.60;99.90
6822;DHT22;3449;48.728;8.968;2024-01-15T07:24:38;-1.60;99.90
6822;DHT22;3449;48.728;8.968;2024-01-15T07:27:06;-1.50;99.90
6822;DHT22;3449;48.728;8.968;2024-01-15T07:29:34;-1.60;99.90
6822;DHT22;3449;48.728;8.968;2024-01-15T07:32:03;-1.60;99.90
6822;DHT22;3449;48.728;8.968;2024-01-15T07:34:31;-1.60;99.90
6822;DHT22;3449;48.728;8.968;2024-01-15T07:36:58;-1.60;99.90
6822;DHT22;3449;48.728;8.968;2024-01-15T07:39:25;-1.60;99.90
6822;DHT22;3449;48.728;8.968;2024-01-15T07:41:54;-1.60;99.90
6822;DHT22;3449;48.728;8.968;2024-01-15T07:44:21;-1.70;99.90
6822;DHT22;3449;48.728;8.968;2024-01-15T07:46:48;-1.70;99.90
6822;DHT22;3449;48.728;8.968;2024-01-15T07:49:15;-1.70;99.90
6822;DHT22;3449;48.728;8.968;2024-01-15T07:51:43;-1.60;99.90
6822;DHT22;3449;48.728;8.968;2024-01-15T07:54:10;-1.60;99.90
6822;DHT22;3449;48.728;8.968;2024-01-15T07:56:53;-1.60;99.90
6822;DHT22;3449;48.728;8.968;2024-01-15T07:59:19;-1.60;99.90
6822;DHT22;3449;48.728;8.968;2024-01-15T08:01:46;-1.60;99.90
6822;DHT22;3449;48.728;8.968;2024-01-15T08:04:13;-1.60;99.90
6822;DHT22;3449;48.728;8.968;2024-01-15T08:06:40;-1.50;99.90
6822;DHT22;3449;48.728;8.968;2024-01-15T08:09:09;-1.50;99.90
6822;DHT22;3449;48.728;8.968;2024-01-15T08:11:36;-1.40;99.90
6822;DHT22;3449;48.728;8.968;2024-01-15T08:14:05;-1.40;93.20
6822;DHT22;3449;48.728;8.968;2024-01-15T08:16:32;-1.40;76.20
6822;DHT22;3449;48.728;8.968;2024-01-15T08:18:59;-1.30;73.20
6822;DHT22;3449;48.728;8.968;2024-01-15T08:21:26;-1.30;43.80
6822;DHT22;3449;48.728;8.968;2024-01-15T08:23:55;-1.30;26.10
6822;DHT22;3449;48.728;8.968;2024-01-15T08:26:24;-1.20;24.30
6822;DHT22;3449;48.728;8.968;2024-01-15T08:28:50;-1.20;31.80
6822;DHT22;3449;48.728;8.968;2024-01-15T08:31:17;-1.20;8.20
6822;DHT22;3449;48.728;8.968;2024-01-15T08:33:44;-1.10;1.00
6822;DHT22;3449;48.728;8.968;2024-01-15T08:36:11;-1.10;1.00
6822;DHT22;3449;48.728;8.968;2024-01-15T08:38:38;-1.10;1.00
6822;DHT22;3449;48.728;8.968;2024-01-15T08:41:05;-1.00;1.00
6822;DHT22;3449;48.728;8.968;2024-01-15T08:43:35;-1.00;1.00
6822;DHT22;3449;48.728;8.968;2024-01-15T08:46:02;-1.00;1.00
6822;DHT22;3449;48.728;8.968;2024-01-15T08:48:29;-0.90;1.00
6822;DHT22;3449;48.728;8.968;2024-01-15T08:50:56;-0.90;1.00
6822;DHT22;3449;48.728;8.968;2024-01-15T08:53:23;-0.90;1.00
6822;DHT22;3449;48.728;8.968;2024-01-15T08:55:50;-0.90;1.00
6822;DHT22;3449;48.728;8.968;2024-01-15T08:58:17;-0.80;1.00
6822;DHT22;3449;48.728;8.968;2024-01-15T09:00:45;-0.80;1.00
6822;DHT22;3449;48.728;8.968;2024-01-15T09:03:12;-0.80;1.00
6822;DHT22;3449;48.728;8.968;2024-01-15T09:05:39;-0.80;1.00
6822;DHT22;3449;48.728;8.968;2024-01-15T09:08:08;-0.70;1.00
6822;DHT22;3449;48.728;8.968;2024-01-15T09:10:35;-0.70;1.00
6822;DHT22;3449;48.728;8.968;2024-01-15T09:13:02;-0.70;1.00
6822;DHT22;3449;48.728;8.968;2024-01-15T09:15:30;-0.70;1.00
6822;DHT22;3449;48.728;8.968;2024-01-15T09:17:58;-0.70;1.00
6822;DHT22;3449;48.728;8.968;2024-01-15T09:20:27;-0.60;1.00
6822;DHT22;3449;48.728;8.968;2024-01-15T09:22:54;-0.70;1.00
6822;DHT22;3449;48.728;8.968;2024-01-15T09:25:21;-0.70;1.00
6822;DHT22;3449;48.728;8.968;2024-01-15T09:27:48;-0.70;1.00
6822;DHT22;3449;48.728;8.968;2024-01-15T09:30:15;-0.60;1.00
6822;DHT22;3449;48.728;8.968;2024-01-15T09:32:42;-0.60;1.00
6822;DHT22;3449;48.728;8.968;2024-01-15T09:35:10;-0.60;1.00
6822;DHT22;3449;48.728;8.968;2024-01-15T09:37:38;-0.60;1.00
6822;DHT22;3449;48.728;8.968;2024-01-15T09:40:06;-0.50;1.00
6822;DHT22;3449;48.728;8.968;2024-01-15T09:42:35;-0.50;1.00
6822;DHT22;3449;48.728;8.968;2024-01-15T09:45:03;-0.40;1.00
6822;DHT22;3449;48.728;8.968;2024-01-15T09:47:30;-0.40;99.90
6822;DHT22;3449;48.728;8.968;2024-01-15T09:49:57;-0.30;99.90
6822;DHT22;3449;48.728;8.968;2024-01-15T09:52:26;-0.30;99.90
6822;DHT22;3449;48.728;8.968;2024-01-15T09:54:53;-0.30;99.90
6822;DHT22;3449;48.728;8.968;2024-01-15T09:57:20;-0.30;99.90
6822;DHT22;3449;48.728;8.968;2024-01-15T09:59:48;-0.20;99.90
6822;DHT22;3449;48.728;8.968;2024-01-15T10:02:15;-0.30;99.90
6822;DHT22;3449;48.728;8.968;2024-01-15T10:04:44;-0.30;99.90
6822;DHT22;3449;48.728;8.968;2024-01-15T10:07:15;-0.30;99.90
6822;DHT22;3449;48.728;8.968;2024-01-15T10:09:46;-0.20;99.90
6822;DHT22;3449;48.728;8.968;2024-01-15T10:12:13;-0.20;99.90
6822;DHT22;3449;48.728;8.968;2024-01-15T10:14:40;-0.20;99.90
6822;DHT22;3449;48.728;8.968;2024-01-15T10:17:12;-0.20;99.90
6822;DHT22;3449;48.728;8.968;2024-01-15T10:19:40;-0.20;99.90
6822;DHT22;3449;48.728;8.968;2024-01-15T10:22:08;-0.10;99.90
6822;DHT22;3449;48.728;8.968;2024-01-15T10:24:36;-0.10;99.90
6822;DHT22;3449;48.728;8.968;2024-01-15T10:27:08;-0.10;99.90
6822;DHT22;3449;48.728;8.968;2024-01-15T10:29:36;-0.10;99.90
6822;DHT22;3449;48.728;8.968;2024-01-15T10:32:05;-0.10;99.90
6822;DHT22;3449;48.728;8.968;2024-01-15T10:34:32;-0.10;99.90
6822;DHT22;3449;48.728;8.968;2024-01-15T10:36:59;0.00;99.90
6822;DHT22;3449;48.728;8.968;2024-01-15T10:39:28;0.00;99.90
6822;DHT22;3449;48.728;8.968;2024-01-15T10:41:56;0.00;99.90
6822;DHT22;3449;48.728;8.968;2024-01-15T10:44:24;0.00;99.90
6822;DHT22;3449;48.728;8.968;2024-01-15T10:46:51;0.00;99.90
6822;DHT22;3449;48.728;8.968;2024-01-15T10:49:18;0.00;99.90
6822;DHT22;3449;48.728;8.968;2024-01-15T10:51:47;0.10;99.90
6822;DHT22;3449;48.728;8.968;2024-01-15T10:54:15;0.10;99.90
6822;DHT22;3449;48.728;8.968;2024-01-15T10:56:43;0.10;99.90
6822;DHT22;3449;48.728;8.968;2024-01-15T10:59:13;0.10;99.90
6822;DHT22;3449;48.728;8.968;2024-01-15T11:01:42;0.00;1.00
6822;DHT22;3449;48.728;8.968;2024-01-15T11:04:09;-0.10;1.00
6822;DHT22;3449;48.728;8.968;2024-01-15T11:06:44;-0.10;1.00
6822;DHT22;3449;48.728;8.968;2024-01-15T11:09:12;-0.20;56.80
6822;DHT22;3449;48.728;8.968;2024-01-15T11:11:41;-0.30;96.20
6822;DHT22;3449;48.728;8.968;2024-01-15T11:14:08;-0.30;99.90
6822;DHT22;3449;48.728;8.968;2024-01-15T11:16:56;-0.20;99.90
6822;DHT22;3449;48.728;8.968;2024-01-15T11:19:24;-0.20;99.90
6822;DHT22;3449;48.728;8.968;2024-01-15T11:21:51;-0.20;96.10
6822;DHT22;3449;48.728;8.968;2024-01-15T11:24:36;-0.20;83.50
6822;DHT22;3449;48.728;8.968;2024-01-15T11:27:04;-0.10;88.20
6822;DHT22;3449;48.728;8.968;2024-01-15T11:29:32;-0.10;67.70
6822;DHT22;3449;48.728;8.968;2024-01-15T11:32:03;-0.10;32.20
6822;DHT22;3449;48.728;8.968;2024-01-15T11:34:54;0.00;91.00
6822;DHT22;3449;48.728;8.968;2024-01-15T11:37:23;-0.10;99.30
6822;DHT22;3449;48.728;8.968;2024-01-15T11:39:55;-0.20;99.90
6822;DHT22;3449;48.728;8.968;2024-01-15T11:42:23;-0.20;99.90
6822;DHT22;3449;48.728;8.968;2024-01-15T11:44:50;-0.20;99.90
6822;DHT22;3449;48.728;8.968;2024-01-15T11:47:50;-0.20;99.90
6822;DHT22;3449;48.728;8.968;2024-01-15T11:50:22;-0.10;99.90
6822;DHT22;3449;48.728;8.968;2024-01-15T11:52:55;-0.10;99.90
6822;DHT22;3449;48.728;8.968;2024-01-15T11:55:27;-0.10;99.90
6822;DHT22;3449;48.728;8.968;2024-01-15T11:57:55;-0.10;99.90
6822;DHT22;3449;48.728;8.968;2024-01-15T12:00:24;-0.10;99.90
6822;DHT22;3449;48.728;8.968;2024-01-15T12:02:52;-0.10;99.90
6822;DHT22;3449;48.728;8.968;2024-01-15T12:05:20;-0.20;99.90
6822;DHT22;3449;48.728;8.968;2024-01-15T12:07:48;-0.20;99.90
6822;DHT22;3449;48.728;8.968;2024-01-15T12:10:17;-0.20;99.90
6822;DHT22;3449;48.728;8.968;2024-01-15T12:12:54;-0.30;99.90
6822;DHT22;3449;48.728;8.968;2024-01-15T12:15:24;-0.30;99.90
6822;DHT22;3449;48.728;8.968;2024-01-15T12:17:52;-0.40;99.90
6822;DHT22;3449;48.728;8.968;2024-01-15T12:20:19;-0.40;99.90
6822;DHT22;3449;48.728;8.968;2024-01-15T12:22:46;-0.40;99.90
6822;DHT22;3449;48.728;8.968;2024-01-15T12:25:13;-0.50;99.90
6822;DHT22;3449;48.728;8.968;2024-01-15T12:27:40;-0.50;99.90
6822;DHT22;3449;48.728;8.968;2024-01-15T12:30:10;-0.50;99.90
6822;DHT22;3449;48.728;8.968;2024-01-15T12:32:37;-0.50;99.90
6822;DHT22;3449;48.728;8.968;2024-01-15T12:35:06;-0.50;99.90
6822;DHT22;3449;48.728;8.968;2024-01-15T12:37:35;-0.50;99.90
6822;DHT22;3449;48.728;8.968;2024-01-15T12:40:02;-0.50;99.90
6822;DHT22;3449;48.728;8.968;2024-01-15T12:42:30;-0.50;99.90
6822;DHT22;3449;48.728;8.968;2024-01-15T12:44:57;-0.50;99.90
6822;DHT22;3449;48.728;8.968;2024-01-15T12:47:24;-0.50;99.90
6822;DHT22;3449;48.728;8.968;2024-01-15T12:49:52;-0.50;99.90
6822;DHT22;3449;48.728;8.968;2024-01-15T12:52:21;-0.50;99.90
6822;DHT22;3449;48.728;8.968;2024-01-15T12:54:48;-0.50;99.90
6822;DHT22;3449;48.728;8.968;2024-01-15T12:57:15;-0.50;99.90
6822;DHT22;3449;48.728;8.968;2024-01-15T12:59:43;-0.50;99.90
6822;DHT22;3449;48.728;8.968;2024-01-15T13:02:10;-0.40;99.90
6822;DHT22;3449;48.728;8.968;2024-01-15T13:04:37;-0.40;99.90
6822;DHT22;3449;48.728;8.968;2024-01-15T13:07:04;-0.40;99.90
6822;DHT22;3449;48.728;8.968;2024-01-15T13:09:33;-0.40;99.90
6822;DHT22;3449;48.728;8.968;2024-01-15T13:12:00;-0.40;99.90
6822;DHT22;3449;48.728;8.968;2024-01-15T13:14:27;-0.50;99.90
6822;DHT22;3449;48.728;8.968;2024-01-15T13:16:54;-0.50;99.90
6822;DHT22;3449;48.728;8.968;2024-01-15T13:19:21;-0.60;99.90
6822;DHT22;3449;48.728;8.968;2024-01-15T13:21:48;-0.50;99.90
6822;DHT22;3449;48.728;8.968;2024-01-15T13:24:15;-0.40;99.90
6822;DHT22;3449;48.728;8.968;2024-01-15T13:26:43;-0.40;99.90
6822;DHT22;3449;48.728;8.968;2024-01-15T13:29:10;-0.40;99.90
6822;DHT22;3449;48.728;8.968;2024-01-15T13:31:37;-0.40;99.90
6822;DHT22;3449;48.728;8.968;2024-01-15T13:34:04;-0.40;99.90
6822;DHT22;3449;48.728;8.968;2024-01-15T13:36:32;-0.40;99.90
6822;DHT22;3449;48.728;8.968;2024-01-15T13:38:59;-0.40;99.90
6822;DHT22;3449;48.728;8.968;2024-01-15T13:41:26;-0.40;99.90
6822;DHT22;3449;48.728;8.968;2024-01-15T13:43:56;-0.30;99.90
6822;DHT22;3449;48.728;8.968;2024-01-15T13:46:25;-0.30;99.90
6822;DHT22;3449;48.728;8.968;2024-01-15T13:48:53;-0.30;99.90
6822;DHT22;3449;48.728;8.968;2024-01-15T13:51:22;-0.30;99.90
6822;DHT22;3449;48.728;8.968;2024-01-15T13:53:50;-0.30;99.90
6822;DHT22;3449;48.728;8.968;2024-01-15T13:56:16;-0.30;99.90
6822;DHT22;3449;48.728;8.968;2024-01-15T13:58:43;-0.30;99.90
6822;DHT22;3449;48.728;8.968;2024-01-15T14:01:11;-0.30;99.90
6822;DHT22;3449;48.728;8.968;2024-01-15T14:03:38;-0.30;99.90
6822;DHT22;3449;48.728;8.968;2024-01-15T14:06:05;-0.30;99.90
6822;DHT22;3449;48.728;8.968;2024-01-15T14:08:34;-0.20;99.90
6822;DHT22;3449;48.728;8.968;2024-01-15T14:11:02;-0.30;99.90
6822;DHT22;3449;48.728;8.968;2024-01-15T14:13:29;-0.30;99.90
6822;DHT22;3449;48.728;8.968;2024-01-15T14:15:56;-0.20;99.90
6822;DHT22;3449;48.728;8.968;2024-01-15T14:18:24;-0.20;99.90
6822;DHT22;3449;48.728;8.968;2024-01-15T14:20:51;-0.30;99.90
6822;DHT22;3449;48.728;8.968;2024-01-15T14:23:19;-0.30;99.90
6822;DHT22;3449;48.728;8.968;2024-01-15T14:25:46;-0.30;99.90
6822;DHT22;3449;48.728;8.968;2024-01-15T14:28:13;-0.40;99.90
6822;DHT22;3449;48.728;8.968;2024-01-15T14:30:39;-0.40;99.90
6822;DHT22;3449;48.728;8.968;2024-01-15T14:33:06;-0.40;99.90
6822;DHT22;3449;48.728;8.968;2024-01-15T14:35:35;-0.40;99.90
6822;DHT22;3449;48.728;8.968;2024-01-15T14:38:02;-0.40;99.90
6822;DHT22;3449;48.728;8.968;2024-01-15T14:40:30;-0.50;99.90
6822;DHT22;3449;48.728;8.968;2024-01-15T14:42:57;-0.60;99.90
6822;DHT22;3449;48.728;8.968;2024-01-15T14:45:24;-0.60;99.90
6822;DHT22;3449;48.728;8.968;2024-01-15T14:47:52;-0.60;99.90
6822;DHT22;3449;48.728;8.968;2024-01-15T14:50:19;-0.70;99.90
6822;DHT22;3449;48.728;8.968;2024-01-15T14:52:48;-0.70;99.90
6822;DHT22;3449;48.728;8.968;2024-01-15T14:55:15;-0.80;99.90
6822;DHT22;3449;48.728;8.968;2024-01-15T14:57:41;-0.80;99.90
6822;DHT22;3449;48.728;8.968;2024-01-15T15:00:08;-0.80;99.90
6822;DHT22;3449;48.728;8.968;2024-01-15T15:02:37;-0.90;99.90
6822;DHT22;3449;48.728;8.968;2024-01-15T15:05:05;-0.90;99.90
6822;DHT22;3449;48.728;8.968;2024-01-15T15:07:32;-0.90;99.90
6822;DHT22;3449;48.728;8.968;2024-01-15T15:10:03;-0.90;99.90
6822;DHT22;3449;48.728;8.968;2024-01-15T15:12:30;-0.90;99.90
6822;DHT22;3449;48.728;8.968;2024-01-15T15:14:57;-0.90;99.90
6822;DHT22;3449;48.728;8.968;2024-01-15T15:17:24;-1.00;99.90
6822;DHT22;3449;48.728;8.968;2024-01-15T15:19:51;-0.90;99.90
6822;DHT22;3449;48.728;8.968;2024-01-15T15:22:19;-1.00;99.90
6822;DHT22;3449;48.728;8.968;2024-01-15T15:24:46;-0.90;99.90
6822;DHT22;3449;48.728;8.968;2024-01-15T15:27:14;-1.00;99.90
6822;DHT22;3449;48.728;8.968;2024-01-15T15:29:41;-1.10;99.90
6822;DHT22;3449;48.728;8.968;2024-01-15T15:32:08;-1.10;99.90
6822;DHT22;3449;48.728;8.968;2024-01-15T15:34:35;-1.20;99.90
6822;DHT22;3449;48.728;8.968;2024-01-15T15:37:02;-1.20;99.90
6822;DHT22;3449;48.728;8.968;2024-01-15T15:39:28;-1.20;99.90
6822;DHT22;3449;48.728;8.968;2024-01-15T15:41:56;-1.30;99.90
6822;DHT22;3449;48.728;8.968;2024-01-15T15:44:24;-1.30;99.90
6822;DHT22;3449;48.728;8.968;2024-01-15T15:46:51;-1.30;99.90
6822;DHT22;3449;48.728;8.968;2024-01-15T15:49:18;-1.30;99.90
6822;DHT22;3449;48.728;8.968;2024-01-15T15:51:45;-1.30;99.90
6822;DHT22;3449;48.728;8.968;2024-01-15T15:54:13;-1.30;99.90
6822;DHT22;3449;48.728;8.968;2024-01-15T15:56:40;-1.40;99.90
6822;DHT22;3449;48.728;8.968;2024-01-15T15:59:08;-1.40;99.90
6822;DHT22;3449;48.728;8.968;2024-01-15T16:01:36;-1.40;99.90
6822;DHT22;3449;48.728;8.968;2024-01-15T16:04:03;-1.40;99.90
6822;DHT22;3449;48.728;8.968;2024-01-15T16:06:30;-1.40;99.90